Time;durP1;ratioP1;P1;durP2;ratioP2;P2;SDS_P1;SDS_P2;PMS_P1;PMS_P2;Temp;Humidity;BMP_temperature;BMP_pressure;BME280_temperature;BME280_humidity;BME280_pressure;Samples;Min_cycle;Max_cycle;Signal;HPM_P1;HPM_P2
2023/01/11 00:02:26;;;;;;;1.73;1.57;;;7.40;99.90;;;;;;5112011;28;20503;-55
2023/01/11 00:04:54;;;;;;;3.83;1.77;;;7.40;99.90;;;;;;5110292;28;20549;-55
2023/01/11 00:07:21;;;;;;;1.80;1.70;;;7.40;99.90;;;;;;5112351;28;20481;-55
2023/01/11 00:09:48;;;;;;;2.20;2.00;;;7.40;99.90;;;;;;5112795;28;20940;-54
2023/01/11 00:12:15;;;;;;;3.73;2.10;;;7.40;99.90;;;;;;5110424;28;20481;-56
2023/01/11 00:14:44;;;;;;;3.77;1.83;;;7.50;99.90;;;;;;5111542;28;20449;-55
2023/01/11 00:17:11;;;;;;;2.70;1.90;;;7.50;99.90;;;;;;5112688;28;20482;-55
2023/01/11 00:19:38;;;;;;;2.97;1.73;;;7.50;99.90;;;;;;5111568;28;20537;-55
2023/01/11 00:22:05;;;;;;;2.07;1.87;;;7.60;99.90;;;;;;5112780;28;20534;-55
2023/01/11 00:24:32;;;;;;;2.70;1.80;;;7.50;99.90;;;;;;5111897;28;20990;-55
2023/01/11 00:27:00;;;;;;;2.27;2.07;;;7.50;99.90;;;;;;5111736;28;20500;-55
2023/01/11 00:29:27;;;;;;;2.10;1.90;;;7.50;99.90;;;;;;5112561;28;20481;-55
2023/01/11 00:31:55;;;;;;;2.80;1.50;;;7.50;99.90;;;;;;5112517;28;20450;-54
2023/01/11 00:34:22;;;;;;;2.53;1.87;;;7.50;99.90;;;;;;5111949;28;20454;-55
2023/01/11 00:36:50;;;;;;;10.83;1.83;;;7.60;99.90;;;;;;5111677;28;20442;-55
2023/01/11 00:39:17;;;;;;;2.30;1.87;;;7.70;99.90;;;;;;5111802;28;20516;-55
2023/01/11 00:50:12;;;;;;;1.73;1.60;;;7.70;99.90;;;;;;5027660;28;20473;-55
2023/01/11 00:52:39;;;;;;;5.67;2.50;;;7.70;99.90;;;;;;5091648;28;20454;-55
2023/01/11 00:55:07;;;;;;;2.80;1.90;;;7.70;99.90;;;;;;5111960;28;20443;-54
2023/01/11 00:57:34;;;;;;;5.90;2.03;;;7.80;99.90;;;;;;5113559;28;20442;-55
2023/01/11 01:00:02;;;;;;;3.67;1.60;;;7.80;99.90;;;;;;5114901;28;20458;-55
2023/01/11 01:02:32;;;;;;;1.80;1.70;;;7.80;99.90;;;;;;5115562;28;20500;-55
2023/01/11 01:04:59;;;;;;;1.97;1.80;;;7.80;99.90;;;;;;5113032;28;20913;-54
2023/01/11 01:07:27;;;;;;;1.70;1.60;;;7.80;99.90;;;;;;5114955;28;20481;-54
2023/01/11 01:09:54;;;;;;;1.60;1.43;;;7.80;99.90;;;;;;5115680;28;20833;-55
2023/01/11 01:15:02;;;;;;;2.90;1.80;;;7.80;99.90;;;;;;5114547;28;20411;-55
2023/01/11 01:17:30;;;;;;;2.83;1.97;;;7.90;99.90;;;;;;5115293;28;20434;-55
2023/01/11 01:19:57;;;;;;;1.60;1.50;;;7.80;99.90;;;;;;5112866;28;20468;-54
2023/01/11 01:22:25;;;;;;;2.70;1.60;;;7.90;99.90;;;;;;5115290;28;20446;-55
2023/01/11 01:24:52;;;;;;;2.37;1.53;;;7.80;99.90;;;;;;5115280;28;20442;-55
2023/01/11 01:27:19;;;;;;;2.40;1.87;;;7.90;99.90;;;;;;5112690;28;20439;-55
2023/01/11 01:29:46;;;;;;;3.47;1.50;;;7.90;99.90;;;;;;5115746;28;20438;-55
2023/01/11 01:32:13;;;;;;;1.90;1.60;;;7.90;99.90;;;;;;5115021;28;20438;-55
2023/01/11 01:34:42;;;;;;;2.73;1.60;;;7.90;99.90;;;;;;5112725;28;20443;-55
2023/01/11 01:37:11;;;;;;;1.60;1.50;;;7.90;99.90;;;;;;5115138;28;20443;-56
2023/01/11 01:39:38;;;;;;;2.17;1.53;;;7.90;99.90;;;;;;5114375;28;20458;-54
2023/01/11 01:42:06;;;;;;;3.23;1.43;;;7.90;99.90;;;;;;5111787;28;21039;-54
2023/01/11 01:44:56;;;;;;;2.03;1.80;;;7.90;99.90;;;;;;5114710;28;20453;-55
2023/01/11 01:47:31;;;;;;;2.37;2.00;;;7.90;99.90;;;;;;5114098;28;20894;-54
2023/01/11 01:50:02;;;;;;;2.30;2.10;;;7.90;99.90;;;;;;5112999;28;20470;-55
2023/01/11 01:52:31;;;;;;;1.83;1.57;;;7.80;99.90;;;;;;5115060;28;20454;-55
2023/01/11 01:55:03;;;;;;;2.73;1.80;;;7.90;99.90;;;;;;5113933;28;20453;-54
2023/01/11 01:57:34;;;;;;;2.27;1.50;;;7.90;99.90;;;;;;5112508;28;20469;-55
2023/01/11 02:00:06;;;;;;;1.70;1.53;;;7.90;99.90;;;;;;5114100;28;20494;-55
2023/01/11 02:02:35;;;;;;;3.53;2.10;;;7.90;99.90;;;;;;5114157;28;20431;-55
2023/01/11 02:05:05;;;;;;;2.27;1.57;;;7.80;99.90;;;;;;5112804;28;20920;-55
2023/01/11 02:07:35;;;;;;;1.60;1.50;;;7.90;99.90;;;;;;5114380;28;20453;-55
2023/01/11 02:10:06;;;;;;;1.50;1.40;;;7.90;99.90;;;;;;5114873;28;20896;-55
2023/01/11 02:12:37;;;;;;;1.50;1.40;;;7.90;99.90;;;;;;5113029;28;20443;-55
2023/01/11 02:15:06;;;;;;;2.03;1.83;;;7.90;99.90;;;;;;5114247;28;20907;-55
2023/01/11 02:17:33;;;;;;;2.60;1.60;;;7.90;99.90;;;;;;5114845;28;20799;-55
2023/01/11 02:20:13;;;;;;;2.07;1.83;;;7.90;99.90;;;;;;5112467;28;20474;-55
2023/01/11 02:23:03;;;;;;;3.87;2.00;;;8.00;99.90;;;;;;5113925;28;20859;-55
2023/01/11 02:25:58;;;;;;;1.80;1.70;;;8.00;99.90;;;;;;5111258;28;20426;-55
2023/01/11 02:28:31;;;;;;;2.20;1.50;;;8.10;99.90;;;;;;5113700;28;20540;-55
2023/01/11 02:31:05;;;;;;;2.23;1.90;;;8.00;99.90;;;;;;5113353;28;20478;-55
2023/01/11 02:33:41;;;;;;;5.30;1.70;;;8.10;99.90;;;;;;5112058;28;20431;-54
2023/01/11 02:36:18;;;;;;;1.83;1.60;;;8.10;99.90;;;;;;5113619;28;20469;-54
2023/01/11 02:38:54;;;;;;;3.03;1.70;;;8.10;99.90;;;;;;5113742;28;20442;-55
2023/01/11 02:45:00;;;;;;;1.57;1.47;;;8.20;99.90;;;;;;5110573;28;21011;-55
2023/01/11 02:47:17;;;;;;;1.83;1.50;;;8.20;99.90;;;;;;5113726;28;20456;-55
2023/01/11 02:49:52;;;;;;;2.80;1.60;;;8.30;99.90;;;;;;5111233;28;20477;-54
2023/01/11 02:52:24;;;;;;;1.77;1.67;;;8.30;99.90;;;;;;5113787;28;20433;-54
2023/01/11 02:54:56;;;;;;;2.07;1.87;;;8.30;99.90;;;;;;5113749;28;20478;-55
2023/01/11 02:57:27;;;;;;;1.90;1.40;;;8.40;99.90;;;;;;5112646;28;20612;-55
2023/01/11 02:59:57;;;;;;;2.30;1.20;;;8.50;99.90;;;;;;5113970;28;20544;-54
2023/01/11 03:02:26;;;;;;;1.40;1.30;;;8.50;99.90;;;;;;5112755;28;20431;-55
2023/01/11 03:04:53;;;;;;;1.40;1.30;;;8.50;99.90;;;;;;5113816;28;20445;-54
2023/01/11 03:07:34;;;;;;;1.43;1.33;;;8.50;99.90;;;;;;5113649;28;20453;-55
2023/01/11 03:10:09;;;;;;;1.63;1.30;;;8.50;99.90;;;;;;5111991;28;20462;-55
2023/01/11 03:12:51;;;;;;;2.30;1.43;;;8.60;99.90;;;;;;5113001;28;20426;-55
2023/01/11 03:15:49;;;;;;;2.50;1.50;;;8.60;99.90;;;;;;5113380;28;20426;-55
2023/01/11 03:18:34;;;;;;;2.30;1.40;;;8.60;99.90;;;;;;5111242;28;20430;-55
2023/01/11 03:21:14;;;;;;;2.17;1.30;;;8.70;99.90;;;;;;5112675;28;20462;-55
2023/01/11 03:23:49;;;;;;;1.80;1.70;;;8.70;99.90;;;;;;5113088;28;20431;-55
2023/01/11 03:26:25;;;;;;;1.17;1.07;;;8.70;99.90;;;;;;5110533;28;20931;-54
2023/01/11 03:29:00;;;;;;;1.83;1.47;;;8.70;99.90;;;;;;5112324;28;20457;-54
2023/01/11 03:31:34;;;;;;;1.60;1.50;;;8.60;99.90;;;;;;5112457;28;20465;-55
2023/01/11 03:34:11;;;;;;;1.40;1.30;;;8.60;99.90;;;;;;5110849;28;20809;-55
2023/01/11 03:36:42;;;;;;;1.50;1.40;;;8.60;99.90;;;;;;5112797;28;20433;-55
2023/01/11 03:39:18;;;;;;;1.40;1.30;;;8.70;99.90;;;;;;5112488;28;20453;-55
2023/01/11 03:41:48;;;;;;;1.47;1.37;;;8.70;99.90;;;;;;5109990;28;21096;-54
2023/01/11 03:44:18;;;;;;;1.30;1.20;;;8.70;99.90;;;;;;5113613;28;20518;-54
2023/01/11 03:46:50;;;;;;;1.40;1.30;;;8.70;99.90;;;;;;5112566;28;20466;-55
2023/01/11 03:49:20;;;;;;;1.70;1.60;;;8.70;99.90;;;;;;5113214;28;20469;-55
2023/01/11 03:51:50;;;;;;;2.90;1.20;;;8.70;99.90;;;;;;5112961;28;20545;-55
2023/01/11 03:54:21;;;;;;;1.60;1.50;;;8.70;99.90;;;;;;5110590;28;20821;-55
2023/01/11 03:56:56;;;;;;;1.20;1.10;;;8.70;99.90;;;;;;5112955;28;20434;-55
2023/01/11 03:59:23;;;;;;;1.40;1.20;;;8.70;99.90;;;;;;5111903;28;20433;-55
2023/01/11 04:01:54;;;;;;;1.40;1.30;;;8.70;99.90;;;;;;5110502;28;20469;-55
2023/01/11 04:04:21;;;;;;;1.40;1.30;;;8.70;99.90;;;;;;5112702;28;20786;-55
2023/01/11 04:06:48;;;;;;;1.40;1.30;;;8.80;99.90;;;;;;5112592;28;20446;-55
2023/01/11 04:09:16;;;;;;;2.13;1.57;;;8.80;99.90;;;;;;5110969;28;20481;-55
2023/01/11 04:11:43;;;;;;;3.67;1.50;;;8.90;99.90;;;;;;5112825;28;20554;-55
2023/01/11 04:14:10;;;;;;;1.20;1.10;;;8.80;99.90;;;;;;5112224;28;20453;-55
2023/01/11 04:16:37;;;;;;;1.23;1.13;;;8.90;99.90;;;;;;5110563;28;20458;-56
2023/01/11 04:19:05;;;;;;;2.00;1.20;;;8.90;99.90;;;;;;5111329;28;21025;-55
2023/01/11 04:21:32;;;;;;;1.70;1.27;;;8.90;99.90;;;;;;5112152;28;20470;-55
2023/01/11 04:24:00;;;;;;;2.17;1.43;;;8.90;99.90;;;;;;5110385;28;20442;-55
2023/01/11 04:26:27;;;;;;;1.57;1.47;;;8.90;99.90;;;;;;5111710;28;20736;-55
2023/01/11 04:28:54;;;;;;;1.50;1.40;;;8.90;99.90;;;;;;5112162;28;20814;-55
2023/01/11 04:31:21;;;;;;;1.87;1.67;;;8.90;99.90;;;;;;5112374;28;20466;-55
2023/01/11 04:33:48;;;;;;;3.30;1.50;;;8.90;99.90;;;;;;5116677;28;20452;-55
2023/01/11 04:36:17;;;;;;;1.87;1.37;;;8.90;99.90;;;;;;5116745;28;20438;-54
2023/01/11 04:38:44;;;;;;;1.50;1.40;;;8.80;99.90;;;;;;5114824;28;20543;-55
2023/01/11 04:43:56;;;;;;;1.40;1.30;;;8.80;99.90;;;;;;5116194;28;20426;-55
2023/01/11 04:46:23;;;;;;;1.80;1.40;;;8.80;99.90;;;;;;5114181;28;20843;-55
2023/01/11 04:48:51;;;;;;;1.70;1.20;;;8.90;99.90;;;;;;5115349;28;20832;-55
2023/01/11 04:51:20;;;;;;;1.30;1.20;;;8.80;99.90;;;;;;5114874;28;20472;-54
2023/01/11 04:53:48;;;;;;;1.43;1.30;;;8.80;99.90;;;;;;5113614;28;20666;-55
2023/01/11 04:56:15;;;;;;;1.73;1.63;;;8.80;99.90;;;;;;5115850;28;20787;-55
2023/01/11 04:58:43;;;;;;;2.40;1.20;;;8.80;99.90;;;;;;5116157;28;20445;-55
2023/01/11 05:01:11;;;;;;;1.30;1.20;;;8.80;99.90;;;;;;5114283;28;20470;-55
2023/01/11 05:03:38;;;;;;;2.10;1.30;;;8.70;99.90;;;;;;5115070;28;20470;-55
2023/01/11 05:06:06;;;;;;;1.53;1.40;;;8.70;99.90;;;;;;5115583;28;20457;-55
2023/01/11 05:08:35;;;;;;;2.07;1.50;;;8.80;99.90;;;;;;5113371;28;20648;-55
2023/01/11 05:11:05;;;;;;;1.63;1.50;;;8.80;99.90;;;;;;5115036;28;20447;-54
2023/01/11 05:13:44;;;;;;;1.50;1.40;;;8.80;99.90;;;;;;5115240;28;20470;-55
2023/01/11 05:16:13;;;;;;;1.30;1.20;;;8.80;99.90;;;;;;5113274;28;20862;-55
2023/01/11 05:18:41;;;;;;;1.30;1.20;;;8.80;99.90;;;;;;5113695;28;20996;-55
2023/01/11 05:21:09;;;;;;;1.47;1.30;;;8.80;99.90;;;;;;5115437;28;20872;-54
2023/01/11 05:23:37;;;;;;;2.70;1.30;;;8.80;99.90;;;;;;5112888;28;20537;-55
2023/01/11 05:26:07;;;;;;;1.40;1.30;;;8.90;99.90;;;;;;5115174;28;20452;-55
2023/01/11 05:28:34;;;;;;;1.83;1.37;;;8.80;99.90;;;;;;5115290;28;20929;-55
2023/01/11 05:31:01;;;;;;;1.40;1.30;;;8.80;99.90;;;;;;5112715;28;20467;-55
2023/01/11 05:33:29;;;;;;;1.40;1.20;;;8.80;99.90;;;;;;5114779;28;20454;-55
2023/01/11 05:36:00;;;;;;;1.40;1.30;;;8.90;99.90;;;;;;5115548;28;20477;-55
2023/01/11 05:38:27;;;;;;;1.50;1.40;;;8.80;99.90;;;;;;5112845;28;20543;-55
2023/01/11 05:40:57;;;;;;;1.40;1.30;;;8.80;99.90;;;;;;5115210;28;20504;-54
2023/01/11 05:43:25;;;;;;;1.33;1.23;;;8.80;99.90;;;;;;5114094;28;20789;-54
2023/01/11 05:45:51;;;;;;;1.40;1.30;;;8.90;99.90;;;;;;5112892;28;20450;-55
2023/01/11 05:48:18;;;;;;;1.83;1.27;;;8.80;99.90;;;;;;5115285;28;20443;-55
2023/01/11 05:50:51;;;;;;;1.57;1.20;;;8.80;99.90;;;;;;5114434;28;20487;-55
2023/01/11 05:53:18;;;;;;;1.30;1.20;;;8.90;99.90;;;;;;5112569;28;20439;-55
2023/01/11 05:55:57;;;;;;;1.40;1.30;;;8.90;99.90;;;;;;5114352;28;20431;-55
2023/01/11 05:58:25;;;;;;;3.50;3.10;;;8.80;99.90;;;;;;5113810;28;20453;-54
2023/01/11 06:00:55;;;;;;;1.40;1.30;;;8.80;99.90;;;;;;5112474;28;20466;-55
2023/01/11 06:03:23;;;;;;;1.33;1.23;;;8.80;99.90;;;;;;5114269;28;20572;-55
2023/01/11 06:05:50;;;;;;;1.40;1.30;;;8.80;99.90;;;;;;5113954;28;20451;-55
2023/01/11 06:08:18;;;;;;;1.80;1.60;;;8.80;99.90;;;;;;5112050;28;20459;-55
2023/01/11 06:10:51;;;;;;;1.30;1.20;;;8.80;99.90;;;;;;5114310;28;20493;-55
2023/01/11 06:13:26;;;;;;;1.80;1.60;;;8.80;99.90;;;;;;5114438;28;20851;-55
2023/01/11 06:15:54;;;;;;;1.97;1.60;;;8.80;99.90;;;;;;5112714;28;20411;-55
2023/01/11 06:18:21;;;;;;;1.60;1.50;;;8.80;99.90;;;;;;5114458;28;20453;-55
2023/01/11 06:20:52;;;;;;;1.53;1.43;;;8.70;99.90;;;;;;5114234;28;20458;-55
2023/01/11 06:23:19;;;;;;;2.13;1.73;;;8.80;99.90;;;;;;5112016;28;20916;-55
2023/01/11 06:25:47;;;;;;;1.30;1.20;;;8.80;99.90;;;;;;5113670;28;20489;-55
2023/01/11 06:28:14;;;;;;;1.70;1.53;;;8.80;99.90;;;;;;5113828;28;20523;-55
2023/01/11 06:30:43;;;;;;;1.50;1.40;;;8.80;99.90;;;;;;5111770;28;20487;-54
2023/01/11 06:33:10;;;;;;;1.50;1.40;;;8.90;99.90;;;;;;5113403;28;20449;-54
2023/01/11 06:35:38;;;;;;;1.53;1.20;;;8.90;99.90;;;;;;5113166;28;20960;-55
2023/01/11 06:38:06;;;;;;;1.40;1.30;;;9.00;99.90;;;;;;5112099;28;20542;-55
2023/01/11 06:40:33;;;;;;;1.50;1.40;;;9.00;99.90;;;;;;5113249;28;20474;-55
2023/01/11 06:43:00;;;;;;;1.47;1.23;;;9.00;99.90;;;;;;5113703;28;20511;-55
2023/01/11 06:45:27;;;;;;;1.40;1.30;;;9.10;99.90;;;;;;5111372;28;20446;-55
2023/01/11 06:47:56;;;;;;;2.50;1.33;;;9.10;99.90;;;;;;5113120;28;20460;-54
2023/01/11 06:50:23;;;;;;;4.13;1.50;;;9.10;99.90;;;;;;5113453;28;20482;-55
2023/01/11 06:52:53;;;;;;;1.30;1.20;;;9.10;99.90;;;;;;5110756;28;20447;-55
2023/01/11 06:55:21;;;;;;;1.43;1.33;;;9.10;99.90;;;;;;5113098;28;20454;-56
2023/01/11 06:57:48;;;;;;;3.33;1.53;;;9.10;99.90;;;;;;5112921;28;20446;-55
2023/01/11 07:00:16;;;;;;;1.50;1.40;;;9.10;99.90;;;;;;5110431;28;20550;-55
2023/01/11 07:02:44;;;;;;;1.53;1.43;;;9.10;99.90;;;;;;5113456;28;20533;-55
2023/01/11 07:05:13;;;;;;;1.40;1.30;;;9.20;99.90;;;;;;5113078;28;20533;-55
2023/01/11 07:07:41;;;;;;;2.20;1.53;;;9.20;99.90;;;;;;5110392;28;20778;-54
2023/01/11 07:10:11;;;;;;;1.70;1.60;;;9.20;99.90;;;;;;5113178;28;20486;-55
2023/01/11 07:12:41;;;;;;;2.60;2.40;;;9.20;99.90;;;;;;5112979;28;20521;-55
2023/01/11 07:15:15;;;;;;;1.90;1.70;;;9.20;99.90;;;;;;5111300;28;20446;-55
2023/01/11 07:17:42;;;;;;;1.50;1.40;;;9.20;99.90;;;;;;5113369;28;20511;-56
2023/01/11 07:20:17;;;;;;;1.60;1.50;;;9.20;99.90;;;;;;5112608;28;20494;-56
2023/01/11 07:22:48;;;;;;;1.67;1.57;;;9.30;99.90;;;;;;5110542;28;20426;-57
2023/01/11 07:25:15;;;;;;;2.13;1.93;;;9.30;99.90;;;;;;5112816;28;20433;-56
2023/01/11 07:27:42;;;;;;;1.90;1.63;;;9.30;99.90;;;;;;5112569;28;20446;-55
2023/01/11 07:30:11;;;;;;;1.83;1.57;;;9.40;99.90;;;;;;5110238;28;20490;-55
2023/01/11 07:32:38;;;;;;;2.10;1.90;;;9.40;99.90;;;;;;5113057;28;20486;-55
2023/01/11 07:35:06;;;;;;;2.10;1.53;;;9.40;99.90;;;;;;5112037;28;20443;-55
2023/01/11 07:37:40;;;;;;;3.87;1.40;;;9.40;99.90;;;;;;5110785;28;20443;-55
2023/01/11 07:40:08;;;;;;;1.70;1.57;;;9.50;99.90;;;;;;5112755;28;20490;-56
2023/01/11 07:45:20;;;;;;;2.40;1.50;;;9.60;99.90;;;;;;5110990;28;20525;-56
2023/01/11 07:47:50;;;;;;;1.70;1.60;;;9.60;99.90;;;;;;5112172;28;20457;-56
2023/01/11 07:50:17;;;;;;;1.53;1.43;;;9.60;99.90;;;;;;5111987;28;20486;-56
2023/01/11 07:52:48;;;;;;;1.60;1.50;;;9.60;99.90;;;;;;5110301;28;20920;-56
2023/01/11 07:55:16;;;;;;;1.53;1.40;;;9.70;99.90;;;;;;5111628;28;20852;-55
2023/01/11 07:57:45;;;;;;;1.70;1.60;;;9.80;99.90;;;;;;5112022;28;20940;-56
2023/01/11 08:00:13;;;;;;;1.43;1.33;;;9.80;99.90;;;;;;5109796;28;20964;-56
2023/01/11 08:02:40;;;;;;;2.47;1.70;;;9.90;99.90;;;;;;5111202;28;20458;-56
2023/01/11 08:05:08;;;;;;;1.63;1.53;;;9.90;99.90;;;;;;5111768;28;20925;-56
2023/01/11 08:07:36;;;;;;;1.43;1.33;;;9.90;99.90;;;;;;5110041;28;20478;-56
2023/01/11 08:10:05;;;;;;;1.70;1.57;;;10.00;99.90;;;;;;5112162;28;20524;-55
2023/01/11 08:15:17;;;;;;;2.27;2.17;;;10.10;99.90;;;;;;5110573;28;20976;-56
2023/01/11 08:17:44;;;;;;;2.20;1.60;;;10.10;99.90;;;;;;5112383;28;20478;-55
2023/01/11 08:20:12;;;;;;;1.60;1.40;;;10.10;99.90;;;;;;5112048;28;20554;-56
2023/01/11 08:22:39;;;;;;;2.70;2.17;;;10.10;99.90;;;;;;5110009;28;20443;-57
2023/01/11 08:25:08;;;;;;;1.67;1.47;;;10.20;99.90;;;;;;5112215;28;20478;-56
2023/01/11 08:27:35;;;;;;;1.60;1.50;;;10.10;99.90;;;;;;5111057;28;21004;-56
2023/01/11 08:30:03;;;;;;;1.50;1.40;;;10.10;99.90;;;;;;5109537;28;20906;-56
2023/01/11 08:32:30;;;;;;;1.53;1.43;;;10.20;99.90;;;;;;5111774;28;20501;-56
2023/01/11 08:34:58;;;;;;;1.63;1.53;;;10.20;99.90;;;;;;5111740;28;20810;-55
2023/01/11 08:37:25;;;;;;;1.60;1.50;;;10.30;99.90;;;;;;5109273;28;20472;-56
2023/01/11 08:39:53;;;;;;;1.57;1.47;;;10.20;99.90;;;;;;5110823;28;20466;-57
2023/01/11 08:42:22;;;;;;;1.50;1.40;;;10.30;99.90;;;;;;5111088;28;20442;-55
2023/01/11 08:44:49;;;;;;;1.93;1.40;;;10.30;99.90;;;;;;5109358;28;20429;-54
2023/01/11 08:47:16;;;;;;;2.07;1.43;;;10.30;99.90;;;;;;5111739;28;20442;-54
2023/01/11 08:49:43;;;;;;;1.70;1.60;;;10.30;99.90;;;;;;5111138;28;20478;-54
2023/01/11 08:52:13;;;;;;;1.47;1.37;;;10.40;99.90;;;;;;5109050;28;20896;-54
2023/01/11 08:54:40;;;;;;;1.63;1.53;;;10.40;99.90;;;;;;5111249;28;20446;-54
2023/01/11 08:57:08;;;;;;;1.40;1.30;;;10.40;99.90;;;;;;5111770;28;20442;-54
2023/01/11 08:59:38;;;;;;;2.60;1.57;;;10.40;99.90;;;;;;5109759;28;20468;-55
2023/01/11 09:02:06;;;;;;;1.40;1.30;;;10.50;99.90;;;;;;5111887;28;20982;-55
2023/01/11 09:04:33;;;;;;;1.67;1.40;;;10.50;99.90;;;;;;5111934;28;20447;-55
2023/01/11 09:07:02;;;;;;;1.43;1.33;;;10.50;99.90;;;;;;5109959;28;20446;-55
2023/01/11 09:09:30;;;;;;;2.23;1.67;;;10.60;99.90;;;;;;5111865;28;20461;-55
2023/01/11 09:11:59;;;;;;;1.30;1.20;;;10.60;99.90;;;;;;5112061;28;20511;-55
2023/01/11 09:14:28;;;;;;;1.70;1.60;;;10.70;99.90;;;;;;5109463;28;20447;-55
2023/01/11 09:16:57;;;;;;;1.73;1.50;;;10.70;99.90;;;;;;5112059;28;20447;-55
2023/01/11 09:19:24;;;;;;;3.20;1.30;;;10.70;99.90;;;;;;5114891;28;20846;-55
2023/01/11 09:21:52;;;;;;;3.70;1.73;;;10.70;99.90;;;;;;5113077;28;20484;-54
2023/01/11 09:24:20;;;;;;;4.50;1.53;;;10.80;99.90;;;;;;5114156;28;20442;-55
2023/01/11 09:26:47;;;;;;;1.60;1.30;;;10.80;99.90;;;;;;5114916;28;20479;-55
2023/01/11 09:29:14;;;;;;;1.40;1.30;;;10.80;99.90;;;;;;5113187;28;20541;-55
2023/01/11 09:31:41;;;;;;;2.17;1.90;;;10.80;99.90;;;;;;5114997;28;20482;-55
2023/01/11 09:34:11;;;;;;;1.57;1.47;;;10.80;99.90;;;;;;5113933;28;20450;-55
2023/01/11 09:36:39;;;;;;;1.60;1.40;;;10.80;99.90;;;;;;5112582;28;20499;-55
2023/01/11 09:39:10;;;;;;;3.60;1.57;;;10.80;99.90;;;;;;5114463;28;20450;-55
2023/01/11 09:42:06;;;;;;;1.50;1.40;;;10.80;99.90;;;;;;5114293;28;20474;-55
2023/01/11 09:44:36;;;;;;;1.40;1.30;;;10.90;99.90;;;;;;5115117;28;20423;-55
2023/01/11 09:47:14;;;;;;;1.40;1.30;;;10.90;99.90;;;;;;5115507;28;20506;-55
2023/01/11 09:49:54;;;;;;;2.30;1.33;;;10.90;99.90;;;;;;5112929;28;20469;-55
2023/01/11 09:52:28;;;;;;;1.60;1.43;;;10.90;99.90;;;;;;5114885;28;20431;-55
2023/01/11 09:54:57;;;;;;;6.20;1.50;;;11.00;99.90;;;;;;5114599;28;20437;-55
2023/01/11 09:57:36;;;;;;;2.50;1.70;;;11.00;99.90;;;;;;5112535;28;20541;-55
2023/01/11 10:00:15;;;;;;;1.90;1.70;;;11.00;99.90;;;;;;5113965;28;20523;-55
2023/01/11 10:03:00;;;;;;;2.07;1.87;;;11.10;99.90;;;;;;5113826;28;20525;-55
2023/01/11 10:05:54;;;;;;;1.60;1.50;;;11.10;99.90;;;;;;5112294;28;20517;-55
2023/01/11 10:08:40;;;;;;;1.67;1.57;;;11.10;99.90;;;;;;5114319;28;20457;-55
2023/01/11 10:11:19;;;;;;;1.60;1.50;;;11.10;99.90;;;;;;5113475;28;20482;-54
2023/01/11 10:13:54;;;;;;;1.80;1.70;;;11.10;99.90;;;;;;5112253;28;20470;-55
2023/01/11 10:16:33;;;;;;;1.73;1.40;;;11.10;99.90;;;;;;5114614;28;20423;-55
2023/01/11 10:19:12;;;;;;;1.57;1.30;;;11.10;99.90;;;;;;5113391;28;20514;-55
2023/01/11 10:21:46;;;;;;;1.70;1.60;;;11.10;99.90;;;;;;5112130;28;20470;-55
2023/01/11 10:24:21;;;;;;;1.50;1.30;;;11.10;99.90;;;;;;5113205;28;20427;-55
2023/01/11 10:26:55;;;;;;;1.73;1.63;;;11.10;99.90;;;;;;5112039;28;20434;-55
2023/01/11 10:29:44;;;;;;;5.83;2.10;;;11.10;99.90;;;;;;5112860;28;20935;-55
2023/01/11 10:32:44;;;;;;;2.10;1.90;;;11.10;99.90;;;;;;5113101;28;20972;-55
2023/01/11 10:35:30;;;;;;;1.60;1.50;;;11.10;99.90;;;;;;5112164;28;20450;-55
2023/01/11 10:38:21;;;;;;;3.30;2.20;;;11.10;99.90;;;;;;5113484;28;20435;-55
2023/01/11 10:41:10;;;;;;;3.70;2.10;;;11.20;99.90;;;;;;5112784;28;20481;-54
2023/01/11 10:43:43;;;;;;;2.20;1.43;;;11.10;99.90;;;;;;5112752;28;20514;-54
2023/01/11 10:46:16;;;;;;;1.67;1.50;;;11.20;99.90;;;;;;5113591;28;20518;-54
2023/01/11 10:48:45;;;;;;;2.13;1.47;;;11.20;99.90;;;;;;5111175;28;20517;-55
2023/01/11 10:51:23;;;;;;;1.70;1.60;;;11.20;99.90;;;;;;5112300;28;20573;-55
2023/01/11 10:54:00;;;;;;;1.57;1.40;;;11.20;99.90;;;;;;5113267;28;20433;-54
2023/01/11 10:56:42;;;;;;;1.60;1.50;;;11.20;99.90;;;;;;5111412;28;20889;-54
2023/01/11 10:59:42;;;;;;;1.43;1.30;;;11.20;99.90;;;;;;5113042;28;20431;-54
2023/01/11 11:02:20;;;;;;;2.27;1.77;;;11.20;99.90;;;;;;5112649;28;20426;-54
2023/01/11 11:05:09;;;;;;;3.90;2.10;;;11.30;99.90;;;;;;5110763;28;20897;-54
2023/01/11 11:07:44;;;;;;;2.70;1.83;;;11.30;99.90;;;;;;5110004;28;20801;-54
2023/01/11 11:10:20;;;;;;;3.27;1.80;;;11.20;99.90;;;;;;5113797;28;20478;-54
2023/01/11 11:12:58;;;;;;;5.20;2.80;;;11.20;99.90;;;;;;5111377;28;20521;-54
2023/01/11 11:15:31;;;;;;;2.63;1.43;;;11.20;99.90;;;;;;5113693;28;20510;-54
2023/01/11 11:17:59;;;;;;;1.77;1.60;;;11.20;99.90;;;;;;5113428;28;20522;-54
2023/01/11 11:20:30;;;;;;;1.60;1.50;;;11.20;99.90;;;;;;5111452;28;20485;-55
2023/01/11 11:22:58;;;;;;;1.83;1.60;;;11.20;99.90;;;;;;5113392;28;20506;-54
2023/01/11 11:25:30;;;;;;;1.43;1.33;;;11.20;99.90;;;;;;5112633;28;20542;-54
2023/01/11 11:28:02;;;;;;;1.40;1.30;;;11.20;99.90;;;;;;5111364;28;20423;-54
2023/01/11 11:30:31;;;;;;;1.63;1.53;;;11.20;99.90;;;;;;5113458;28;20531;-54
2023/01/11 11:33:01;;;;;;;1.93;1.80;;;11.20;99.90;;;;;;5112279;28;20461;-55
2023/01/11 11:35:38;;;;;;;1.60;1.50;;;11.20;99.90;;;;;;5112375;28;20978;-55
2023/01/11 11:38:06;;;;;;;1.57;1.47;;;11.30;99.90;;;;;;5113041;28;20769;-54
2023/01/11 11:40:36;;;;;;;2.10;1.40;;;11.30;99.90;;;;;;5109488;28;20565;-55
2023/01/11 11:43:11;;;;;;;3.33;1.80;;;11.30;99.90;;;;;;5112503;28;20831;-55
2023/01/11 11:45:51;;;;;;;2.10;1.80;;;11.30;99.90;;;;;;5112646;28;20445;-55
2023/01/11 11:48:18;;;;;;;4.60;1.87;;;11.40;99.90;;;;;;5110651;28;20431;-55
2023/01/11 11:50:47;;;;;;;1.60;1.50;;;11.40;99.90;;;;;;5112571;28;20482;-55
2023/01/11 11:53:32;;;;;;;1.67;1.53;;;11.30;99.90;;;;;;5112801;28;20472;-55
2023/01/11 11:56:07;;;;;;;3.17;1.50;;;11.30;99.90;;;;;;5110840;28;20434;-55
2023/01/11 11:58:35;;;;;;;3.20;1.87;;;11.40;99.90;;;;;;5112451;28;20441;-55
2023/01/11 12:01:06;;;;;;;3.40;2.20;;;11.30;99.90;;;;;;5112440;28;20862;-54
2023/01/11 12:03:34;;;;;;;2.30;2.10;;;11.30;99.90;;;;;;5110061;28;20466;-55
2023/01/11 12:06:03;;;;;;;1.87;1.70;;;11.30;99.90;;;;;;5112185;28;20542;-55
2023/01/11 12:08:34;;;;;;;2.20;2.00;;;11.30;99.90;;;;;;5111897;28;20809;-55
2023/01/11 12:11:05;;;;;;;1.60;1.50;;;11.40;99.90;;;;;;5110790;28;20493;-55
2023/01/11 12:13:34;;;;;;;3.10;1.90;;;11.40;99.90;;;;;;5111987;28;20434;-55
2023/01/11 12:16:03;;;;;;;2.50;1.83;;;11.40;99.90;;;;;;5111730;28;20473;-54
2023/01/11 12:18:40;;;;;;;1.93;1.70;;;11.40;99.90;;;;;;5109980;28;20570;-54
2023/01/11 12:21:18;;;;;;;2.53;1.80;;;11.50;99.90;;;;;;5112356;28;20589;-54
2023/01/11 12:23:45;;;;;;;5.00;1.90;;;11.40;99.90;;;;;;5112256;28;20423;-54
2023/01/11 12:26:34;;;;;;;1.63;1.53;;;11.40;99.90;;;;;;5110551;28;20447;-54
2023/01/11 12:29:28;;;;;;;1.63;1.53;;;11.40;99.90;;;;;;5111816;28;20407;-54
2023/01/11 12:32:14;;;;;;;2.03;1.70;;;11.40;99.90;;;;;;5111847;28;20827;-55
2023/01/11 12:34:58;;;;;;;1.80;1.70;;;11.40;99.90;;;;;;5069842;28;20450;-54
2023/01/11 12:37:38;;;;;;;1.77;1.67;;;11.40;99.90;;;;;;5111558;28;20426;-54
2023/01/11 12:40:13;;;;;;;1.93;1.70;;;11.50;99.90;;;;;;5109970;28;20473;-55
2023/01/11 12:42:59;;;;;;;2.10;1.87;;;11.50;99.90;;;;;;5110906;28;20726;-55
2023/01/11 12:45:37;;;;;;;2.47;2.10;;;11.60;99.90;;;;;;5111693;28;20429;-55
2023/01/11 12:48:27;;;;;;;1.70;1.60;;;11.60;99.90;;;;;;5109732;28;20458;-56
2023/01/11 12:51:12;;;;;;;2.43;1.70;;;11.60;99.90;;;;;;5110912;28;20490;-55
2023/01/11 12:53:59;;;;;;;2.23;1.70;;;11.60;99.90;;;;;;5116132;28;20427;-55
2023/01/11 12:56:38;;;;;;;2.20;1.77;;;11.50;99.90;;;;;;5113660;28;20908;-55
2023/01/11 12:59:20;;;;;;;2.07;1.93;;;11.50;99.90;;;;;;5112041;28;20467;-55
2023/01/11 13:01:58;;;;;;;2.27;1.73;;;11.50;99.90;;;;;;5095018;28;20501;-52
2023/01/11 13:04:45;;;;;;;1.97;1.70;;;11.30;99.90;;;;;;5101178;28;20478;-48
2023/01/11 13:07:32;;;;;;;1.80;1.70;;;11.30;99.90;;;;;;5095763;28;20427;-53
2023/01/11 13:10:21;;;;;;;2.60;1.70;;;11.20;99.90;;;;;;5093422;28;20530;-53
2023/01/11 13:12:56;;;;;;;2.07;1.90;;;11.20;99.90;;;;;;5109066;27;20906;-56
2023/01/11 13:15:33;;;;;;;2.17;1.97;;;11.20;99.90;;;;;;5136540;27;20517;-51
2023/01/11 13:18:07;;;;;;;2.20;1.90;;;11.20;99.90;;;;;;5122833;27;20430;-57
2023/01/11 13:20:44;;;;;;;1.93;1.73;;;11.20;99.90;;;;;;5115775;28;20461;-55
2023/01/11 13:23:19;;;;;;;1.97;1.67;;;11.30;99.90;;;;;;5115594;28;20438;-55
2023/01/11 13:25:49;;;;;;;2.10;1.83;;;11.40;99.90;;;;;;5113587;28;20521;-55
2023/01/11 13:28:26;;;;;;;2.33;2.10;;;11.30;99.90;;;;;;5110128;28;20922;-56
2023/01/11 13:30:55;;;;;;;1.80;1.70;;;11.40;99.90;;;;;;5129478;27;20453;-55
2023/01/11 13:33:24;;;;;;;1.97;1.87;;;11.40;99.90;;;;;;5134160;27;20549;-57
2023/01/11 13:35:57;;;;;;;2.80;2.60;;;11.40;99.90;;;;;;5136150;27;20478;-55
2023/01/11 13:38:35;;;;;;;1.90;1.80;;;11.40;99.90;;;;;;5135853;27;20946;-58
2023/01/11 13:41:12;;;;;;;4.53;1.67;;;11.30;99.90;;;;;;5133262;27;20476;-56